MST,Max TemperatureF,Mean TemperatureF,Min TemperatureF,Max Dew PointF,MeanDew PointF,Min DewpointF,Max Humidity, Mean Humidity, Min Humidity, Max Sea Level PressureIn, Mean Sea Level PressureIn, Min Sea Level PressureIn, Max VisibilityMiles, Mean VisibilityMiles, Min VisibilityMiles, Max Wind SpeedMPH, Mean Wind SpeedMPH, Max Gust SpeedMPH,PrecipitationIn, CloudCover, Events, WindDirDegrees
2013-12-1,48,44,39,31,28,26,62,56,49,30.06,29.85,29.64,10,10,10,25,13,32,T,7,Rain,246
2013-12-2,46,33,20,36,30,17,92,73,53,29.86,29.62,29.49,10,5,0,25,10,32,0.98,8,Fog-Rain-Snow,49
2013-12-3,20,13,6,16,8,2,92,86,80,30.31,30.04,29.76,4,2,0,20,11,25,0.29,8,Fog-Snow,343
2013-12-4,6,0,-6,2,-3,-14,95,77,59,30.42,30.27,30.09,10,6,1,16,6,20,0.06,6,Fog-Snow,304
2013-12-5,-3,-9,-15,-8,-13,-17,95,80,64,30.57,30.41,30.13,10,9,2,15,5,17,0.00,1,Fog,237
2013-12-6,-10,-14,-18,-16,-19,-22,87,76,64,30.72,30.64,30.28,10,8,3,13,5,16,T,4,Snow,114
2013-12-7,-13,-17,-21,-20,-23,-25,86,78,69,30.69,30.50,30.10,10,9,3,20,7,24,T,3,Fog-Snow,341
2013-12-8,7,-5,-17,-2,-10,-23,79,74,68,30.34,30.23,29.96,10,8,1,28,18,33,T,5,Snow,233
2013-12-9,22,10,-2,11,1,-8,79,68,56,30.26,30.15,30.00,10,10,10,38,22,46,0.00,5,Snow,241
2013-12-10,28,20,11,20,14,7,96,76,56,30.43,30.19,30.01,10,6,0,31,15,36,0.08,8,Fog-Snow,36
2013-12-11,29,18,7,14,10,4,92,71,50,30.39,30.30,30.21,10,8,0,26,17,32,0.00,2,Fog,231
2013-12-12,36,32,28,21,18,15,63,56,49,30.23,30.11,29.96,10,10,10,25,16,31,0.00,6,,235
2013-12-13,39,34,29,30,24,19,75,65,54,30.23,30.07,29.95,10,10,10,23,13,28,T,6,Rain-Snow,265
2013-12-14,44,34,24,28,23,18,75,63,51,30.24,30.16,30.06,10,10,10,38,20,47,0.00,5,,246
2013-12-15,50,42,34,26,24,22,64,48,32,30.04,29.98,29.91,10,10,10,38,17,49,0.00,6,,234
2013-12-16,50,40,29,26,24,22,85,62,38,30.30,30.12,29.99,10,10,10,25,10,33,0.00,5,,284
2013-12-17,49,37,24,25,24,21,88,64,39,30.29,30.04,29.80,10,10,10,28,16,34,0.00,5,,250
2013-12-18,49,37,25,27,25,22,100,67,34,29.86,29.77,29.73,10,8,0,23,14,27,0.00,7,Fog,39
2013-12-19,25,12,-2,21,5,-4,92,84,76,30.31,30.06,29.80,10,4,1,28,10,34,0.13,6,Snow,61
2013-12-20,24,12,0,13,8,2,83,69,55,30.06,29.83,29.63,10,10,10,28,17,33,0.00,6,,230
2013-12-21,28,21,13,24,19,11,92,77,62,30.10,29.86,29.62,10,7,1,12,5,13,0.01,8,Snow,283
2013-12-22,13,7,0,10,6,-1,96,86,76,30.46,30.26,29.95,10,5,1,15,6,18,0.23,6,Fog-Snow,55
2013-12-23,39,18,-4,32,11,-7,95,77,59,30.44,30.16,29.86,10,8,0,33,16,38,0.02,6,Fog-Rain,231
2013-12-24,39,34,29,34,25,17,92,70,48,30.38,30.16,29.88,10,9,1,37,20,46,0.09,6,Rain-Snow,292
2013-12-25,36,29,22,20,16,13,65,55,44,30.41,30.29,30.14,10,10,10,36,19,41,0.00,2,,248
2013-12-26,42,36,30,25,21,17,58,53,47,30.24,30.17,30.08,10,10,10,32,20,38,0.00,4,,236
2013-12-27,50,43,36,27,25,23,64,53,42,30.15,30.03,29.83,10,10,10,29,21,37,0.00,2,,239
2013-12-28,46,29,12,25,12,5,76,61,45,30.50,30.27,29.81,10,10,10,37,11,44,0.00,5,,55
2013-12-29,38,26,13,23,15,7,84,68,52,30.47,30.16,29.89,10,10,10,25,15,31,0.00,5,,237
2013-12-30,40,36,32,25,22,21,61,55,48,30.20,30.07,29.89,10,10,10,28,15,36,0.00,5,,259
2013-12-31,45,39,32,33,29,22,100,74,48,30.09,29.97,29.86,10,6,0,26,14,32,0.09,8,Fog-Rain-Snow,250